Time;durP1;ratioP1;P1;durP2;ratioP2;P2;SDS_P1;SDS_P2;PMS_P1;PMS_P2;Temp;Humidity;BMP_temperature;BMP_pressure;BME280_temperature;BME280_humidity;BME280_pressure;Samples;Min_cycle;Max_cycle;Signal;HPM_P1;HPM_P2
2022/06/07 00:04:22;;;;;;;1.35;0.30;;;15.90;92.50;;;;;;10284958;28;20043;-84
2022/06/07 00:09:24;;;;;;;0.20;0.20;;;15.80;92.80;;;;;;10282315;28;20061;-85
2022/06/07 00:14:27;;;;;;;1.25;0.43;;;15.80;93.60;;;;;;10281311;28;20057;-85
2022/06/07 00:19:28;;;;;;;0.47;0.25;;;15.70;94.60;;;;;;10281691;28;20054;-85
2022/06/07 00:24:30;;;;;;;1.70;0.20;;;15.60;95.00;;;;;;10292555;28;20043;-86
2022/06/07 00:29:33;;;;;;;0.45;0.20;;;15.50;95.60;;;;;;10270161;28;20607;-86
2022/06/07 00:34:35;;;;;;;0.70;0.28;;;15.40;97.60;;;;;;10277811;28;20065;-86
2022/06/07 00:39:37;;;;;;;0.40;0.20;;;15.40;99.70;;;;;;10291199;28;20054;-86
2022/06/07 00:44:44;;;;;;;0.50;0.20;;;15.30;99.90;;;;;;10287439;28;20046;-86
2022/06/07 00:49:55;;;;;;;2.60;0.40;;;15.20;99.90;;;;;;10292922;28;20524;-86
2022/06/07 00:54:58;;;;;;;0.57;0.20;;;15.10;99.90;;;;;;10284062;28;20037;-86
2022/06/07 01:00:00;;;;;;;0.60;0.20;;;15.10;99.90;;;;;;10282187;28;20050;-86
2022/06/07 01:05:02;;;;;;;1.38;0.30;;;15.10;99.90;;;;;;10289879;28;20061;-86
2022/06/07 01:15:25;;;;;;;0.80;0.28;;;15.20;99.90;;;;;;10290013;28;20058;-87
2022/06/07 01:20:28;;;;;;;0.40;0.20;;;15.20;99.90;;;;;;10294672;28;20047;-88
2022/06/07 01:25:30;;;;;;;0.80;0.25;;;15.30;99.90;;;;;;10296782;28;20125;-87
2022/06/07 01:30:32;;;;;;;0.45;0.20;;;15.20;99.90;;;;;;10276575;28;20469;-88
2022/06/07 01:35:34;;;;;;;1.20;0.20;;;15.20;99.90;;;;;;10280404;28;20046;-88
2022/06/07 01:46:03;;;;;;;1.33;0.30;;;15.30;99.90;;;;;;10292236;28;20084;-88
2022/06/07 01:51:07;;;;;;;2.05;0.20;;;15.30;99.90;;;;;;10284088;28;20520;-88
2022/06/07 01:56:14;;;;;;;1.02;0.40;;;15.40;99.90;;;;;;10275783;28;20054;-88
2022/06/07 02:01:16;;;;;;;6.60;0.30;;;15.40;99.90;;;;;;10268657;28;20070;-88
2022/06/07 02:06:18;;;;;;;1.60;0.40;;;15.40;99.90;;;;;;10277919;28;20074;-88
2022/06/07 02:11:25;;;;;;;0.75;0.52;;;15.40;99.90;;;;;;10276057;28;20047;-88
2022/06/07 02:16:27;;;;;;;1.15;0.43;;;15.50;99.90;;;;;;10270387;28;20110;-88
2022/06/07 02:21:28;;;;;;;1.67;0.40;;;15.60;99.90;;;;;;10304627;28;20051;-87
2022/06/07 02:26:36;;;;;;;1.70;0.57;;;15.60;99.90;;;;;;10301323;28;20071;-87
2022/06/07 02:31:42;;;;;;;1.50;0.50;;;15.70;99.90;;;;;;10290699;28;20046;-87
2022/06/07 02:36:47;;;;;;;0.75;0.30;;;15.70;99.90;;;;;;10288087;28;20105;-88
2022/06/07 02:41:49;;;;;;;0.20;0.20;;;15.60;99.90;;;;;;10303335;28;20126;-87
2022/06/07 02:46:51;;;;;;;0.90;0.28;;;15.60;99.90;;;;;;10301814;28;20057;-88
2022/06/07 02:51:53;;;;;;;0.52;0.30;;;15.50;99.90;;;;;;10308758;28;20951;-87
2022/06/07 02:57:09;;;;;;;1.30;0.30;;;15.30;99.90;;;;;;10283792;28;20077;-89
2022/06/07 03:02:11;;;;;;;1.90;0.20;;;15.30;99.90;;;;;;10290396;28;20506;-88
2022/06/07 03:07:13;;;;;;;0.93;0.65;;;15.10;99.90;;;;;;10297990;28;20470;-89
2022/06/07 03:12:15;;;;;;;0.20;0.20;;;15.00;99.90;;;;;;10306010;28;20480;-88
2022/06/07 03:17:17;;;;;;;1.45;0.20;;;14.90;99.90;;;;;;10301395;28;20069;-89
2022/06/07 03:22:20;;;;;;;1.17;0.20;;;14.90;99.90;;;;;;10295078;28;20125;-87
2022/06/07 03:27:22;;;;;;;0.85;0.40;;;14.80;99.90;;;;;;10277963;28;20058;-87
2022/06/07 03:32:25;;;;;;;0.47;0.28;;;14.80;99.90;;;;;;10307608;28;20071;-88
2022/06/07 03:37:26;;;;;;;1.30;0.30;;;14.80;99.90;;;;;;10285283;28;20073;-88
2022/06/07 03:42:29;;;;;;;3.63;0.45;;;14.80;99.90;;;;;;10310492;28;20153;-87
2022/06/07 03:47:31;;;;;;;5.28;0.43;;;14.70;99.90;;;;;;10299687;28;20121;-88
2022/06/07 03:52:33;;;;;;;1.75;0.30;;;14.70;99.90;;;;;;10287081;28;20074;-88
2022/06/07 03:57:34;;;;;;;3.05;0.30;;;14.80;99.90;;;;;;10282909;28;20145;-88
2022/06/07 04:02:36;;;;;;;2.58;0.35;;;14.80;99.90;;;;;;10307420;28;20129;-88
2022/06/07 04:12:59;;;;;;;1.55;0.55;;;14.90;99.90;;;;;;10327492;28;20066;-88
2022/06/07 04:18:01;;;;;;;3.22;0.22;;;15.00;99.90;;;;;;10321317;28;20065;-88
2022/06/07 04:23:04;;;;;;;2.33;0.80;;;15.00;99.90;;;;;;10282475;28;20533;-88
2022/06/07 04:28:06;;;;;;;2.22;0.50;;;15.00;99.90;;;;;;10304123;28;20049;-88
2022/06/07 04:33:07;;;;;;;1.45;0.40;;;15.10;99.90;;;;;;10298213;28;20081;-88
2022/06/07 04:38:10;;;;;;;1.40;0.40;;;15.10;99.90;;;;;;10313998;28;20089;-87
2022/06/07 04:43:12;;;;;;;2.55;0.30;;;15.20;99.90;;;;;;10296201;28;20048;-87
2022/06/07 04:48:15;;;;;;;0.50;0.30;;;15.30;99.90;;;;;;10288081;28;20055;-88
2022/06/07 04:53:17;;;;;;;2.28;0.50;;;15.40;99.90;;;;;;10288802;28;20054;-88
2022/06/07 04:58:19;;;;;;;3.40;0.30;;;15.40;99.90;;;;;;10305194;28;20467;-88
2022/06/07 05:03:21;;;;;;;1.48;0.40;;;15.30;99.90;;;;;;10305942;28;20046;-92
2022/06/07 05:08:23;;;;;;;2.17;0.40;;;15.40;99.90;;;;;;10336010;28;20050;-89
2022/06/07 05:13:24;;;;;;;0.93;0.30;;;15.50;99.90;;;;;;10324466;28;20034;-88
2022/06/07 05:18:26;;;;;;;1.25;0.60;;;15.50;99.90;;;;;;10317465;28;20038;-88
2022/06/07 05:23:38;;;;;;;1.67;0.20;;;15.70;99.90;;;;;;10326279;28;20038;-87
2022/06/07 05:28:43;;;;;;;0.93;0.30;;;15.80;99.90;;;;;;10327986;28;20051;-88
2022/06/07 05:33:45;;;;;;;9.25;0.60;;;16.00;99.90;;;;;;10311988;28;20595;-88
2022/06/07 05:38:49;;;;;;;1.42;0.30;;;16.10;99.90;;;;;;10312653;28;20505;-89
2022/06/07 05:43:52;;;;;;;2.30;0.35;;;16.20;99.90;;;;;;10330557;28;20082;-89
2022/06/07 05:48:53;;;;;;;1.83;0.25;;;16.20;99.90;;;;;;10335868;28;20049;-87
2022/06/07 05:53:55;;;;;;;3.03;0.20;;;16.40;99.90;;;;;;10309279;28;20063;-88
2022/06/07 05:58:57;;;;;;;0.40;0.20;;;16.50;99.90;;;;;;10346218;28;20540;-88
2022/06/07 06:04:03;;;;;;;1.33;0.35;;;16.60;99.90;;;;;;10315610;28;20050;-87
2022/06/07 06:14:27;;;;;;;0.65;0.20;;;17.10;99.90;;;;;;10332284;28;20052;-90
2022/06/07 06:19:28;;;;;;;1.77;0.20;;;17.20;99.90;;;;;;10349649;28;20309;-88
2022/06/07 06:24:30;;;;;;;2.90;0.20;;;17.40;99.90;;;;;;10322967;28;20026;-88
2022/06/07 06:29:32;;;;;;;0.10;0.10;;;17.50;99.90;;;;;;10337079;28;20069;-87
2022/06/07 06:34:35;;;;;;;0.88;0.20;;;17.70;99.90;;;;;;10325958;28;20475;-87
2022/06/07 06:39:36;;;;;;;5.65;0.35;;;17.80;99.90;;;;;;10317142;28;20059;-88
2022/06/07 06:44:38;;;;;;;0.75;0.20;;;17.80;99.90;;;;;;10292248;28;20065;-87
2022/06/07 06:49:41;;;;;;;2.13;0.10;;;18.00;99.90;;;;;;10321166;28;20084;-87
2022/06/07 06:54:43;;;;;;;0.80;0.20;;;18.10;99.90;;;;;;10291006;28;20050;-86
2022/06/07 06:59:45;;;;;;;2.65;0.20;;;18.30;99.30;;;;;;10320726;28;20070;-87
2022/06/07 07:04:46;;;;;;;0.45;0.20;;;18.40;99.10;;;;;;10303411;28;20042;-87
2022/06/07 07:09:50;;;;;;;3.72;0.20;;;18.40;98.90;;;;;;10324717;28;20058;-88
2022/06/07 07:14:51;;;;;;;0.75;0.10;;;18.50;98.90;;;;;;10315261;28;20089;-88
2022/06/07 07:19:59;;;;;;;1.58;0.30;;;18.70;98.00;;;;;;10308201;28;20067;-88
2022/06/07 07:25:01;;;;;;;0.40;0.20;;;18.80;97.90;;;;;;10310910;28;20042;-88
2022/06/07 07:30:03;;;;;;;1.23;0.20;;;18.90;97.30;;;;;;10281831;28;20089;-87
2022/06/07 07:35:06;;;;;;;0.65;0.20;;;19.10;97.10;;;;;;10291453;28;20073;-87
2022/06/07 07:40:08;;;;;;;0.40;0.20;;;19.10;97.10;;;;;;10288466;28;20047;-88
2022/06/07 07:45:12;;;;;;;1.52;0.20;;;19.30;96.00;;;;;;10298068;28;20126;-89
2022/06/07 07:50:17;;;;;;;1.10;0.22;;;19.40;95.80;;;;;;10284946;28;20490;-89
2022/06/07 07:55:19;;;;;;;0.60;0.20;;;19.70;94.00;;;;;;10297451;28;20035;-89
2022/06/07 08:00:21;;;;;;;2.85;0.10;;;19.80;92.20;;;;;;10293484;28;20051;-89
2022/06/07 08:05:22;;;;;;;0.50;0.10;;;20.10;91.70;;;;;;10277598;28;20059;-89
2022/06/07 08:10:24;;;;;;;0.30;0.10;;;20.30;90.40;;;;;;10281843;28;20577;-87
2022/06/07 08:15:33;;;;;;;0.65;0.10;;;20.40;87.00;;;;;;10278631;28;20047;-88
2022/06/07 08:20:37;;;;;;;0.63;0.10;;;20.60;83.60;;;;;;10297489;28;20531;-87
2022/06/07 08:25:39;;;;;;;1.75;0.10;;;20.70;82.40;;;;;;10277139;28;20082;-87
2022/06/07 08:30:46;;;;;;;1.17;0.08;;;20.90;80.40;;;;;;10321728;28;20046;-87
2022/06/07 08:41:29;;;;;;;0.28;0.03;;;21.20;75.10;;;;;;10348336;28;20039;-87
2022/06/07 08:46:34;;;;;;;1.33;0.10;;;21.10;71.00;;;;;;10329568;28;20054;-87
2022/06/07 08:52:08;;;;;;;0.15;0.10;;;21.60;71.90;;;;;;10326784;28;20050;-87
2022/06/07 08:57:19;;;;;;;1.27;0.20;;;21.30;70.50;;;;;;10329849;28;20042;-88
2022/06/07 09:02:54;;;;;;;2.50;0.10;;;21.40;70.40;;;;;;10337562;28;20043;-88
2022/06/07 09:07:56;;;;;;;0.13;0.10;;;21.70;68.80;;;;;;10317028;28;20038;-88
2022/06/07 09:13:23;;;;;;;0.00;0.00;;;22.00;67.80;;;;;;10318471;28;20041;-86
2022/06/07 09:18:28;;;;;;;0.13;0.10;;;21.80;67.30;;;;;;10310721;28;20045;-88
2022/06/07 09:23:34;;;;;;;0.40;0.00;;;21.80;66.30;;;;;;10322767;28;20084;-87
2022/06/07 09:28:36;;;;;;;;;;;22.10;65.10;;;;;;10324051;28;20046;-87
2022/06/07 09:34:03;;;;;;;0.40;0.10;;;21.90;64.60;;;;;;10326948;28;20012;-87
2022/06/07 09:39:19;;;;;;;0.20;0.00;;;21.80;64.60;;;;;;10298584;28;20061;-86
2022/06/07 09:44:29;;;;;;;1.53;0.03;;;21.70;65.40;;;;;;10303547;28;20042;-88
2022/06/07 09:49:53;;;;;;;1.17;0.10;;;22.00;63.40;;;;;;10289476;28;20050;-87
2022/06/07 09:55:18;;;;;;;0.95;0.00;;;22.10;62.00;;;;;;10321282;28;20074;-88
2022/06/07 10:00:44;;;;;;;0.68;0.10;;;22.00;63.50;;;;;;10314797;28;20094;-88
2022/06/07 10:06:13;;;;;;;0.50;0.10;;;22.30;62.40;;;;;;10300842;28;20129;-88
2022/06/07 10:11:52;;;;;;;1.05;0.17;;;22.30;62.50;;;;;;10270997;28;20502;-88
2022/06/07 10:16:54;;;;;;;3.28;0.10;;;22.50;61.80;;;;;;10293159;28;20054;-88
2022/06/07 10:22:05;;;;;;;0.30;0.10;;;22.40;61.60;;;;;;10271083;28;20154;-88
2022/06/07 10:27:29;;;;;;;1.48;0.50;;;22.60;62.60;;;;;;10318894;28;20046;-88
2022/06/07 10:32:46;;;;;;;2.55;0.10;;;22.60;62.70;;;;;;10307927;28;20117;-88
2022/06/07 10:38:16;;;;;;;0.38;0.10;;;22.70;62.70;;;;;;10326451;28;20046;-88
2022/06/07 10:43:25;;;;;;;3.60;0.00;;;22.90;61.80;;;;;;10247699;28;20050;-88
2022/06/07 10:48:42;;;;;;;1.83;0.10;;;22.70;60.80;;;;;;10279981;28;20046;-88
2022/06/07 10:53:47;;;;;;;1.10;0.10;;;22.90;60.80;;;;;;10266804;28;20051;-87
2022/06/07 10:58:52;;;;;;;3.33;0.10;;;22.90;61.50;;;;;;10297932;28;20101;-87
2022/06/07 11:10:14;;;;;;;0.20;0.10;;;23.40;61.60;;;;;;10289883;28;20149;-87
2022/06/07 11:15:59;;;;;;;0.90;0.15;;;23.00;61.70;;;;;;10252231;28;20047;-87
2022/06/07 11:21:01;;;;;;;2.42;0.20;;;23.10;62.30;;;;;;10282737;28;20426;-87
2022/06/07 11:26:17;;;;;;;1.27;0.10;;;23.00;62.00;;;;;;10269774;28;20507;-87
2022/06/07 11:31:25;;;;;;;;;;;23.20;62.80;;;;;;10266655;28;20046;-87
2022/06/07 11:36:34;;;;;;;2.50;0.20;;;23.30;64.50;;;;;;10282545;28;19953;-88
2022/06/07 11:41:54;;;;;;;0.28;0.20;;;23.40;64.00;;;;;;10291624;28;20125;-88
2022/06/07 11:47:07;;;;;;;1.17;0.30;;;23.50;61.50;;;;;;10278641;28;20046;-88
2022/06/07 11:52:12;;;;;;;0.20;0.10;;;23.60;61.00;;;;;;10280248;28;20062;-87
2022/06/07 11:57:32;;;;;;;2.10;0.10;;;23.80;60.50;;;;;;10271738;28;20137;-88
2022/06/07 12:02:36;;;;;;;1.05;0.10;;;23.70;59.10;;;;;;10286466;28;20125;-88
2022/06/07 12:07:54;;;;;;;0.93;0.47;;;23.80;60.90;;;;;;10283459;28;20141;-87
2022/06/07 12:13:49;;;;;;;1.90;0.10;;;23.80;60.20;;;;;;10278524;28;20127;-88
2022/06/07 12:18:52;;;;;;;0.22;0.08;;;24.00;61.00;;;;;;10279959;28;21525;-88
2022/06/07 12:24:09;;;;;;;0.15;0.10;;;24.50;60.50;;;;;;10269894;28;20046;-88
2022/06/07 12:29:24;;;;;;;0.63;0.10;;;24.30;59.70;;;;;;10296255;28;20034;-88
2022/06/07 12:34:28;;;;;;;0.13;0.10;;;24.30;59.30;;;;;;10293542;28;20056;-88
2022/06/07 12:39:39;;;;;;;0.80;0.20;;;24.10;60.60;;;;;;10278558;28;20034;-88
2022/06/07 12:45:00;;;;;;;0.43;0.10;;;24.40;61.10;;;;;;10299735;28;20066;-89
2022/06/07 12:50:19;;;;;;;0.30;0.10;;;24.60;59.30;;;;;;10292692;28;20054;-89
2022/06/07 12:55:31;;;;;;;0.55;0.00;;;24.60;57.40;;;;;;10266547;28;20556;-89
2022/06/07 13:00:54;;;;;;;2.75;0.10;;;24.60;57.70;;;;;;10262294;28;20783;-89
2022/06/07 13:06:15;;;;;;;0.50;0.25;;;24.60;59.00;;;;;;10296532;28;20046;-89
2022/06/07 13:11:17;;;;;;;3.10;0.10;;;24.60;58.40;;;;;;10281752;28;20065;-89
2022/06/07 13:16:33;;;;;;;0.40;0.10;;;24.60;58.50;;;;;;10267017;28;20081;-89
2022/06/07 13:21:39;;;;;;;1.35;0.10;;;24.90;57.70;;;;;;10302570;28;20437;-89
2022/06/07 13:26:44;;;;;;;0.82;0.10;;;24.70;57.20;;;;;;10286938;28;20138;-89
2022/06/07 13:31:54;;;;;;;0.30;0.20;;;24.60;58.40;;;;;;10300678;28;20413;-89
2022/06/07 13:37:05;;;;;;;1.92;0.10;;;24.70;57.90;;;;;;10286366;28;20054;-89
2022/06/07 13:42:20;;;;;;;0.20;0.10;;;24.90;58.10;;;;;;10259340;28;20049;-89
2022/06/07 13:47:35;;;;;;;0.22;0.10;;;24.70;58.50;;;;;;10285582;28;20089;-89
2022/06/07 13:57:58;;;;;;;0.90;0.10;;;25.70;57.10;;;;;;10298484;28;20141;-88
2022/06/07 14:03:04;;;;;;;0.55;0.10;;;25.80;57.00;;;;;;10279074;28;20113;-88
2022/06/07 14:08:13;;;;;;;2.58;0.20;;;25.90;57.40;;;;;;10282946;28;20054;-88
2022/06/07 14:13:15;;;;;;;0.65;0.10;;;25.80;56.90;;;;;;10284236;28;20070;-88
2022/06/07 14:18:21;;;;;;;2.65;0.10;;;26.10;56.70;;;;;;10290769;28;20137;-88
2022/06/07 14:23:23;;;;;;;0.77;0.10;;;26.00;56.40;;;;;;10300704;28;20058;-85
2022/06/07 14:28:25;;;;;;;0.10;0.08;;;25.90;56.80;;;;;;10258124;28;20058;-83
2022/06/07 14:33:34;;;;;;;0.10;0.10;;;25.40;57.70;;;;;;10296338;28;20101;-84
2022/06/07 14:38:35;;;;;;;0.40;0.10;;;25.50;57.20;;;;;;10301912;28;20054;-84
2022/06/07 14:43:38;;;;;;;0.20;0.10;;;25.60;58.40;;;;;;10290677;28;20058;-88
2022/06/07 14:48:43;;;;;;;0.57;0.32;;;26.10;57.20;;;;;;10277884;28;20054;-89
2022/06/07 14:53:47;;;;;;;0.10;0.00;;;25.80;56.80;;;;;;10288051;28;20538;-87
2022/06/07 14:58:50;;;;;;;7.57;0.32;;;25.60;57.30;;;;;;10286644;28;20057;-87
2022/06/07 15:03:53;;;;;;;0.77;0.60;;;25.40;58.90;;;;;;9893439;28;20043;-84
2022/06/07 15:08:55;;;;;;;1.65;0.10;;;25.60;58.70;;;;;;10064501;28;20058;-84
2022/06/07 15:13:58;;;;;;;2.63;0.15;;;26.30;57.60;;;;;;10266776;28;20474;-85
2022/06/07 15:19:02;;;;;;;0.20;0.10;;;26.50;57.50;;;;;;10275206;28;20609;-85
2022/06/07 15:24:05;;;;;;;3.63;0.10;;;26.30;57.00;;;;;;10296560;28;20082;-86
2022/06/07 15:29:07;;;;;;;2.00;0.00;;;25.60;58.10;;;;;;10297358;28;20046;-86
2022/06/07 15:34:11;;;;;;;0.35;0.10;;;25.20;59.70;;;;;;10279152;28;20046;-86
2022/06/07 15:39:13;;;;;;;1.38;0.10;;;24.80;61.00;;;;;;10282209;28;20046;-85
2022/06/07 15:44:37;;;;;;;0.20;0.10;;;24.50;63.10;;;;;;10294004;28;20068;-85
2022/06/07 15:49:39;;;;;;;1.27;0.10;;;24.00;64.20;;;;;;10287207;28;20105;-85
2022/06/07 15:54:41;;;;;;;0.73;0.10;;;23.70;65.70;;;;;;10294466;28;20042;-86
2022/06/07 15:59:43;;;;;;;0.98;0.10;;;23.60;66.30;;;;;;10302948;28;20043;-87
2022/06/07 16:04:45;;;;;;;1.25;0.10;;;23.50;67.60;;;;;;10257796;28;20128;-85
2022/06/07 16:09:47;;;;;;;0.57;0.10;;;23.30;68.40;;;;;;10261645;28;20058;-88
2022/06/07 16:14:52;;;;;;;0.73;0.20;;;22.50;80.90;;;;;;10294371;28;20128;-87
2022/06/07 16:19:54;;;;;;;0.35;0.10;;;21.50;91.70;;;;;;10298668;28;20512;-88
2022/06/07 16:24:57;;;;;;;0.65;0.20;;;20.90;98.80;;;;;;10303439;28;20046;-88
2022/06/07 16:35:19;;;;;;;1.70;0.22;;;20.60;99.90;;;;;;10301059;28;20134;-87
2022/06/07 16:40:21;;;;;;;0.30;0.20;;;20.70;99.90;;;;;;10284757;28;20102;-88
2022/06/07 16:45:23;;;;;;;0.40;0.30;;;20.70;99.90;;;;;;10271813;28;20072;-88
2022/06/07 16:50:25;;;;;;;0.43;0.20;;;20.80;99.90;;;;;;10298927;28;20092;-87
2022/06/07 16:55:27;;;;;;;2.42;0.30;;;20.80;99.90;;;;;;10265629;28;20519;-88
2022/06/07 17:00:30;;;;;;;0.43;0.10;;;20.80;99.90;;;;;;10291603;28;20088;-88
2022/06/07 17:05:39;;;;;;;0.22;0.10;;;20.90;99.90;;;;;;10298439;28;20403;-87
2022/06/07 17:10:41;;;;;;;0.80;0.00;;;20.60;97.50;;;;;;10283621;28;20509;-88
2022/06/07 17:15:43;;;;;;;1.17;0.00;;;19.90;98.50;;;;;;10302057;28;20125;-88
2022/06/07 17:20:45;;;;;;;0.15;0.00;;;19.00;99.90;;;;;;10289558;28;20042;-89
2022/06/07 17:25:47;;;;;;;0.43;0.08;;;18.10;99.90;;;;;;10253481;28;20504;-91
2022/06/07 17:30:50;;;;;;;1.20;0.10;;;17.30;99.90;;;;;;10282480;28;20117;-91
2022/06/07 17:35:51;;;;;;;3.92;0.13;;;17.00;99.90;;;;;;10264735;28;20060;-89
2022/06/07 17:40:53;;;;;;;0.50;0.10;;;16.80;99.90;;;;;;10270282;28;20053;-88
2022/06/07 17:45:56;;;;;;;0.80;0.10;;;16.80;99.90;;;;;;10296807;28;20049;-88
2022/06/07 17:50:57;;;;;;;0.32;0.00;;;16.80;99.90;;;;;;10293541;28;20046;-88
2022/06/07 17:56:00;;;;;;;0.77;0.10;;;17.10;99.90;;;;;;10280377;28;20174;-88
2022/06/07 18:01:02;;;;;;;0.17;0.10;;;17.90;99.90;;;;;;10270775;28;20054;-88
2022/06/07 18:06:06;;;;;;;2.10;0.20;;;18.50;99.90;;;;;;10295627;28;20049;-88
2022/06/07 18:11:10;;;;;;;0.17;0.08;;;18.80;99.90;;;;;;10271317;28;20050;-88
2022/06/07 18:16:12;;;;;;;2.40;0.10;;;18.70;99.90;;;;;;10297595;28;20062;-87
2022/06/07 18:21:15;;;;;;;8.38;0.30;;;18.60;99.90;;;;;;10269566;28;20051;-87
2022/06/07 18:26:17;;;;;;;1.65;0.05;;;18.40;99.90;;;;;;10273122;28;20066;-87
2022/06/07 18:31:32;;;;;;;0.70;0.10;;;18.20;99.90;;;;;;10270704;28;20065;-87
2022/06/07 18:36:37;;;;;;;3.38;0.10;;;18.00;99.90;;;;;;10264629;28;20129;-87
2022/06/07 18:41:40;;;;;;;1.27;0.40;;;17.90;99.90;;;;;;10264068;28;20061;-87
2022/06/07 18:46:42;;;;;;;1.20;0.50;;;17.90;99.90;;;;;;10294682;28;20112;-87
2022/06/07 18:51:44;;;;;;;2.13;0.40;;;17.90;99.90;;;;;;10308732;28;20094;-87
2022/06/07 18:56:47;;;;;;;0.95;0.15;;;17.90;99.90;;;;;;10263614;28;20042;-87
2022/06/07 19:01:50;;;;;;;1.05;0.40;;;17.70;99.90;;;;;;10283786;28;20057;-88
2022/06/07 19:06:52;;;;;;;0.50;0.10;;;17.60;99.90;;;;;;10284433;28;20049;-89
2022/06/07 19:12:01;;;;;;;2.17;0.20;;;17.60;99.90;;;;;;10296886;28;20066;-89
2022/06/07 19:17:03;;;;;;;1.00;0.30;;;17.60;99.90;;;;;;10297911;28;20153;-89
2022/06/07 19:22:07;;;;;;;2.60;0.38;;;17.50;99.90;;;;;;10305184;28;20047;-89
2022/06/07 19:27:09;;;;;;;1.73;0.25;;;17.50;99.90;;;;;;10271308;28;20062;-88
2022/06/07 19:32:11;;;;;;;6.47;0.40;;;17.50;99.90;;;;;;10287235;28;20122;-89
2022/06/07 19:37:15;;;;;;;1.50;0.40;;;17.60;99.90;;;;;;10281857;28;20054;-89
2022/06/07 19:42:17;;;;;;;1.35;0.20;;;17.50;99.90;;;;;;10259754;28;20051;-89
2022/06/07 19:47:19;;;;;;;2.38;0.20;;;17.60;99.90;;;;;;10251796;28;20074;-88
2022/06/07 19:52:21;;;;;;;1.20;0.30;;;17.60;99.90;;;;;;10288626;28;20074;-88
2022/06/07 19:57:23;;;;;;;3.20;0.28;;;17.50;99.90;;;;;;10257471;28;20042;-89
2022/06/07 20:02:28;;;;;;;3.20;0.30;;;17.50;99.90;;;;;;10236340;28;20046;-89
2022/06/07 20:07:32;;;;;;;1.13;0.20;;;17.50;99.90;;;;;;10272933;28;20159;-89
2022/06/07 20:12:35;;;;;;;4.32;0.20;;;17.60;99.90;;;;;;10296057;28;20089;-88
2022/06/07 20:17:38;;;;;;;0.28;0.20;;;17.50;99.90;;;;;;10292354;28;20055;-89
2022/06/07 20:22:40;;;;;;;1.17;0.10;;;17.50;99.90;;;;;;10299170;28;20051;-88
2022/06/07 20:27:43;;;;;;;2.85;0.30;;;17.40;99.90;;;;;;10272708;28;20073;-88
2022/06/07 20:32:45;;;;;;;1.88;0.17;;;17.40;99.90;;;;;;10313045;28;20061;-87
2022/06/07 20:37:49;;;;;;;0.30;0.20;;;17.40;99.90;;;;;;10282080;28;20102;-87
2022/06/07 20:42:51;;;;;;;1.15;0.40;;;17.40;99.90;;;;;;10222796;28;20033;-87
2022/06/07 20:47:56;;;;;;;0.50;0.20;;;17.30;99.90;;;;;;10242506;28;20087;-86
2022/06/07 20:52:59;;;;;;;1.58;0.30;;;17.40;99.90;;;;;;10313495;28;20045;-88
2022/06/07 20:58:01;;;;;;;0.80;0.20;;;17.30;99.90;;;;;;10324960;28;20058;-89
2022/06/07 21:03:04;;;;;;;1.27;0.30;;;17.30;99.90;;;;;;10313572;28;20047;-87
2022/06/07 21:08:07;;;;;;;3.22;0.30;;;17.30;99.90;;;;;;10275707;28;20034;-88
2022/06/07 21:13:09;;;;;;;1.17;0.28;;;17.20;99.90;;;;;;10290574;28;20051;-88
2022/06/07 21:18:11;;;;;;;2.13;0.60;;;17.20;99.90;;;;;;10292236;28;20089;-88
2022/06/07 21:23:18;;;;;;;1.73;0.50;;;17.20;99.90;;;;;;10281272;28;20047;-87
2022/06/07 21:28:20;;;;;;;0.50;0.25;;;17.20;99.90;;;;;;10281121;28;20046;-87
2022/06/07 21:33:22;;;;;;;1.02;0.30;;;17.10;99.90;;;;;;10282073;28;20093;-86
2022/06/07 21:38:25;;;;;;;1.00;0.40;;;17.20;99.90;;;;;;10276078;28;20067;-87
2022/06/07 21:43:27;;;;;;;1.27;0.30;;;17.10;99.90;;;;;;10269001;28;20481;-87
2022/06/07 21:48:29;;;;;;;0.52;0.32;;;17.10;99.90;;;;;;10287184;28;20057;-86
2022/06/07 21:53:31;;;;;;;0.47;0.35;;;17.10;99.90;;;;;;10269986;28;20063;-87
2022/06/07 21:58:33;;;;;;;0.50;0.30;;;17.10;99.90;;;;;;10287690;28;20056;-87
2022/06/07 22:03:35;;;;;;;1.73;0.40;;;17.00;99.90;;;;;;10297517;28;20050;-87
2022/06/07 22:08:39;;;;;;;0.40;0.30;;;17.10;99.90;;;;;;10299585;28;20050;-87
2022/06/07 22:13:45;;;;;;;;;;;17.10;99.90;;;;;;10264503;28;20055;-88
2022/06/07 22:18:47;;;;;;;3.80;0.40;;;17.10;99.90;;;;;;10284111;28;19956;-86
2022/06/07 22:23:49;;;;;;;1.90;0.73;;;17.10;99.90;;;;;;10261230;28;20055;-86
2022/06/07 22:34:12;;;;;;;3.45;0.60;;;17.10;99.90;;;;;;10301493;28;20047;-86
2022/06/07 22:39:17;;;;;;;1.60;0.38;;;17.20;99.90;;;;;;10259029;28;20039;-87
2022/06/07 22:44:19;;;;;;;2.75;0.60;;;17.10;99.90;;;;;;10274868;28;20050;-87
2022/06/07 22:49:22;;;;;;;0.45;0.30;;;17.10;99.90;;;;;;10275809;28;20046;-86
2022/06/07 22:54:34;;;;;;;3.20;0.47;;;17.00;99.90;;;;;;10254610;28;20047;-87
2022/06/07 22:59:44;;;;;;;1.75;0.45;;;17.00;99.90;;;;;;10237932;28;20131;-87
2022/06/07 23:04:50;;;;;;;1.17;0.40;;;17.00;99.90;;;;;;10271986;28;20121;-87
2022/06/07 23:09:51;;;;;;;5.38;0.60;;;16.90;99.90;;;;;;10277501;28;20046;-87
2022/06/07 23:20:14;;;;;;;1.58;0.50;;;16.80;99.90;;;;;;10303097;28;20058;-86
2022/06/07 23:25:17;;;;;;;1.48;0.40;;;16.80;99.90;;;;;;10295504;28;20043;-87
2022/06/07 23:30:19;;;;;;;0.70;0.35;;;16.70;99.90;;;;;;10271646;28;20050;-87
2022/06/07 23:35:21;;;;;;;0.65;0.38;;;16.70;99.90;;;;;;10274964;28;20061;-87
2022/06/07 23:40:24;;;;;;;3.17;0.40;;;16.60;99.90;;;;;;10256496;28;20047;-87
2022/06/07 23:45:27;;;;;;;0.43;0.22;;;16.60;99.90;;;;;;10257736;28;20053;-87
2022/06/07 23:50:38;;;;;;;2.83;0.30;;;16.60;99.90;;;;;;10261670;28;20043;-87
2022/06/07 23:55:44;;;;;;;0.70;0.30;;;16.60;99.90;;;;;;10259023;28;20064;-88
